New Orleans, Naval Air Station Joint Reserve Base New Orleans (KNBG)

NameNaval Air Station Joint Reserve Base New Orleans
CityNew Orleans
CountryUnited States
ICAOKNBG
IATANBG
Altitude1 m
CoordinatesGoogle Map
Live Air TrafficLiveATC.net
METARKNBG 191655Z 04013KT 10SM FEW180 SCT250 16/01 A3032 RMK AO2 SLP266 T01610006 $
2019-03-19 16:55:00 Wind: North-Northeast (40°) 6.69 m/s - Visibility: 16093.4 m - Temperature: 16 °C - Dew point: 1 °C - Humidity: 36.4% - Pressure: 1026.75 hPa
Statistics

The table below shows the detailed information of all flights to/from New Orleans, Naval Air Station Joint Reserve Base New Orleans (KNBG).